Time;durP1;ratioP1;P1;durP2;ratioP2;P2;SDS_P1;SDS_P2;PMS_P1;PMS_P2;Temp;Humidity;BMP_temperature;BMP_pressure;BME280_temperature;BME280_humidity;BME280_pressure;Samples;Min_cycle;Max_cycle;Signal;HPM_P1;HPM_P2
2022/07/30 00:01:54;;;;;;;3.22;2.92;;;17.00;99.90;;;;;;5083298;28;19924;-62
2022/07/30 00:04:20;;;;;;;3.33;2.72;;;16.90;99.90;;;;;;5074024;28;20041;-62
2022/07/30 00:06:47;;;;;;;4.00;2.65;;;17.00;99.90;;;;;;5082111;28;20056;-63
2022/07/30 00:09:14;;;;;;;4.00;2.88;;;16.90;99.90;;;;;;5076118;28;20040;-62
2022/07/30 00:11:41;;;;;;;2.47;2.25;;;16.90;99.90;;;;;;5076440;28;20032;-63
2022/07/30 00:14:07;;;;;;;5.88;2.97;;;17.00;99.90;;;;;;5093899;28;20479;-63
2022/07/30 00:16:35;;;;;;;3.20;2.63;;;16.90;99.90;;;;;;5093698;28;20504;-63
2022/07/30 00:19:02;;;;;;;;;;;16.90;99.90;;;;;;5059207;28;20109;-63
2022/07/30 00:21:29;;;;;;;5.50;3.22;;;17.00;99.90;;;;;;5093479;28;19927;-63
2022/07/30 00:24:04;;;;;;;3.53;2.85;;;17.00;99.90;;;;;;5093948;28;20646;-63
2022/07/30 00:26:31;;;;;;;7.85;3.28;;;17.00;99.90;;;;;;5093049;28;20051;-63
2022/07/30 00:28:58;;;;;;;5.95;3.13;;;16.90;99.90;;;;;;5076273;28;20102;-62
2022/07/30 00:31:25;;;;;;;3.17;2.83;;;16.90;99.90;;;;;;5092890;28;20043;-63
2022/07/30 00:33:52;;;;;;;3.28;2.40;;;16.90;99.90;;;;;;5075503;28;20051;-63
2022/07/30 00:36:19;;;;;;;4.88;3.00;;;16.90;99.90;;;;;;5061890;28;20037;-63
2022/07/30 00:38:45;;;;;;;3.00;2.50;;;16.90;99.90;;;;;;5080671;28;20126;-62
2022/07/30 00:41:12;;;;;;;4.43;3.35;;;16.90;99.90;;;;;;5092997;28;20036;-63
2022/07/30 00:43:42;;;;;;;5.60;3.47;;;16.90;99.90;;;;;;5075142;28;20052;-63
2022/07/30 00:46:09;;;;;;;;;;;17.00;99.90;;;;;;5063396;28;20059;-63
2022/07/30 00:48:36;;;;;;;5.07;3.30;;;17.00;99.90;;;;;;5070951;28;19924;-62
2022/07/30 00:51:03;;;;;;;4.57;3.20;;;17.00;99.90;;;;;;5092943;28;20051;-63
2022/07/30 00:53:30;;;;;;;;;;;16.90;99.90;;;;;;5093301;28;20040;-63
2022/07/30 00:55:57;;;;;;;4.40;2.70;;;16.90;99.90;;;;;;5082025;28;20416;-63
2022/07/30 00:58:25;;;;;;;3.42;2.70;;;16.90;99.90;;;;;;5069310;28;20071;-63
2022/07/30 01:00:52;;;;;;;3.97;2.63;;;16.90;99.90;;;;;;5074645;28;20520;-63
2022/07/30 01:03:18;;;;;;;3.10;2.65;;;16.90;99.90;;;;;;5087194;28;20055;-63
2022/07/30 01:05:45;;;;;;;3.22;2.55;;;16.90;99.90;;;;;;5074989;28;20047;-63
2022/07/30 01:08:13;;;;;;;4.35;2.45;;;16.80;99.90;;;;;;5074803;28;20071;-63
2022/07/30 01:10:39;;;;;;;3.90;2.35;;;16.80;99.90;;;;;;5065827;28;20421;-63
2022/07/30 01:13:07;;;;;;;3.08;2.25;;;16.80;99.90;;;;;;5075241;28;20144;-63
2022/07/30 01:15:34;;;;;;;4.25;2.30;;;16.80;99.90;;;;;;5074861;28;20493;-63
2022/07/30 01:18:02;;;;;;;;;;;16.70;99.90;;;;;;5075173;28;20052;-63
2022/07/30 01:20:37;;;;;;;3.33;2.28;;;16.70;99.90;;;;;;5077170;28;19974;-63
2022/07/30 01:23:11;;;;;;;4.57;2.47;;;16.60;99.90;;;;;;5074341;28;20048;-63
2022/07/30 01:25:53;;;;;;;2.50;2.30;;;16.50;99.90;;;;;;5074413;28;20048;-63
2022/07/30 01:28:34;;;;;;;4.32;2.40;;;16.50;99.90;;;;;;5065446;28;20129;-63
2022/07/30 01:31:02;;;;;;;3.15;2.55;;;16.60;99.90;;;;;;5065200;28;20087;-64
2022/07/30 01:33:33;;;;;;;2.30;2.10;;;16.60;99.90;;;;;;5074400;28;20043;-64
2022/07/30 01:36:01;;;;;;;4.03;2.90;;;16.50;99.90;;;;;;5074524;28;20044;-63
2022/07/30 01:38:48;;;;;;;2.90;2.60;;;16.40;99.90;;;;;;5059148;28;20036;-63
2022/07/30 01:41:18;;;;;;;4.55;2.65;;;16.50;99.90;;;;;;5053931;28;20045;-63
2022/07/30 01:43:46;;;;;;;7.18;2.33;;;16.50;99.90;;;;;;5054386;28;20139;-63
2022/07/30 01:46:15;;;;;;;4.10;2.50;;;16.40;99.90;;;;;;5074064;28;20067;-63
2022/07/30 01:48:45;;;;;;;4.90;2.25;;;16.40;99.90;;;;;;5057017;28;20523;-63
2022/07/30 01:51:13;;;;;;;4.78;2.45;;;16.40;99.90;;;;;;5070333;28;20485;-63
2022/07/30 01:53:46;;;;;;;8.20;2.47;;;16.40;99.90;;;;;;5057595;28;20050;-63
2022/07/30 01:56:20;;;;;;;3.67;2.15;;;16.40;99.90;;;;;;5074120;28;20046;-63
2022/07/30 01:58:54;;;;;;;3.13;2.50;;;16.40;99.90;;;;;;5074206;28;20043;-63
2022/07/30 02:01:24;;;;;;;5.68;2.35;;;16.40;99.90;;;;;;5077021;28;20032;-63
2022/07/30 02:03:59;;;;;;;5.57;2.25;;;16.40;99.90;;;;;;5089445;28;20151;-63
2022/07/30 02:06:33;;;;;;;4.60;2.22;;;16.30;99.90;;;;;;5073920;28;20044;-63
2022/07/30 02:09:05;;;;;;;2.47;2.28;;;16.20;99.90;;;;;;5061909;28;20048;-63
2022/07/30 02:14:32;;;;;;;3.70;2.70;;;16.20;99.90;;;;;;5073790;28;20158;-63
2022/07/30 02:17:01;;;;;;;3.88;2.40;;;16.30;99.90;;;;;;5067362;28;20044;-63
2022/07/30 02:19:35;;;;;;;2.72;2.30;;;16.30;99.90;;;;;;5082115;28;20505;-63
2022/07/30 02:22:09;;;;;;;2.13;1.83;;;16.30;99.90;;;;;;5053398;28;20530;-63
2022/07/30 02:24:40;;;;;;;2.95;2.05;;;16.20;99.90;;;;;;5079588;28;20044;-63
2022/07/30 02:27:14;;;;;;;7.82;2.47;;;16.20;99.90;;;;;;5079547;28;20462;-63
2022/07/30 02:29:42;;;;;;;6.65;2.22;;;16.20;99.90;;;;;;5070188;28;20072;-63
2022/07/30 02:32:14;;;;;;;3.45;3.08;;;16.30;99.90;;;;;;5069950;28;20040;-64
2022/07/30 02:34:46;;;;;;;4.43;3.10;;;16.30;99.90;;;;;;5072509;28;20048;-64
2022/07/30 02:37:14;;;;;;;4.20;2.90;;;16.30;99.90;;;;;;5053488;28;20135;-64
2022/07/30 02:39:42;;;;;;;3.38;2.53;;;16.30;99.90;;;;;;5071434;28;20051;-63
2022/07/30 02:42:11;;;;;;;5.05;2.55;;;16.30;99.90;;;;;;5053460;28;20041;-63
2022/07/30 02:44:42;;;;;;;4.55;2.42;;;16.30;99.90;;;;;;5077848;28;20058;-63
2022/07/30 02:47:12;;;;;;;3.15;2.45;;;16.30;99.90;;;;;;5073473;28;20044;-63
2022/07/30 02:49:57;;;;;;;3.42;2.17;;;16.30;99.90;;;;;;5069188;28;20048;-63
2022/07/30 02:52:26;;;;;;;6.95;2.20;;;16.30;99.90;;;;;;5064970;28;20519;-63
2022/07/30 02:54:56;;;;;;;2.88;2.30;;;16.30;99.90;;;;;;5095781;28;20503;-63
2022/07/30 02:57:23;;;;;;;3.78;2.70;;;16.30;99.90;;;;;;5077087;28;20493;-63
2022/07/30 02:59:50;;;;;;;4.38;2.72;;;16.30;99.90;;;;;;5060644;28;20048;-63
2022/07/30 03:02:19;;;;;;;4.25;2.50;;;16.30;99.90;;;;;;5077260;28;20058;-63
2022/07/30 03:04:56;;;;;;;;;;;16.20;99.90;;;;;;5077808;28;20062;-63
2022/07/30 03:07:24;;;;;;;4.20;2.63;;;16.20;99.90;;;;;;5089174;28;20298;-63
2022/07/30 03:09:54;;;;;;;4.80;2.65;;;16.20;99.90;;;;;;5068510;28;20123;-63
2022/07/30 03:12:24;;;;;;;3.05;2.28;;;16.20;99.90;;;;;;5077323;28;20412;-63
2022/07/30 03:14:51;;;;;;;4.32;2.42;;;16.20;99.90;;;;;;5077124;28;20730;-63
2022/07/30 03:17:19;;;;;;;3.20;2.72;;;16.20;99.90;;;;;;5081175;28;20381;-63
2022/07/30 03:19:48;;;;;;;4.55;2.55;;;16.30;99.90;;;;;;5074234;28;20047;-63
2022/07/30 03:22:17;;;;;;;5.65;2.78;;;16.20;99.90;;;;;;5076676;28;20048;-63
2022/07/30 03:24:46;;;;;;;5.25;2.80;;;16.30;99.90;;;;;;5077005;28;20040;-63
2022/07/30 03:27:14;;;;;;;2.40;2.03;;;16.30;99.90;;;;;;5063646;28;20044;-63
2022/07/30 03:29:42;;;;;;;3.60;2.40;;;16.30;99.90;;;;;;5090211;28;20229;-62
2022/07/30 03:32:09;;;;;;;4.68;2.65;;;16.20;99.90;;;;;;5076439;28;20037;-63
2022/07/30 03:34:42;;;;;;;3.05;2.75;;;16.20;99.90;;;;;;5076811;28;20066;-62
2022/07/30 03:37:10;;;;;;;5.18;3.42;;;16.20;99.90;;;;;;5063860;28;20580;-62
2022/07/30 03:39:38;;;;;;;4.13;2.88;;;16.20;99.90;;;;;;5072760;28;20082;-62
2022/07/30 03:42:07;;;;;;;5.22;3.30;;;16.20;99.90;;;;;;5076277;28;20076;-62
2022/07/30 03:44:35;;;;;;;3.70;2.65;;;16.30;99.90;;;;;;5075900;28;20044;-62
2022/07/30 03:47:05;;;;;;;5.43;2.70;;;16.30;99.90;;;;;;5073259;28;20090;-62
2022/07/30 03:49:38;;;;;;;3.65;2.80;;;16.30;99.90;;;;;;5056399;28;20121;-62
2022/07/30 03:52:05;;;;;;;9.45;3.03;;;16.30;99.90;;;;;;5057592;28;20143;-62
2022/07/30 03:54:34;;;;;;;5.13;3.10;;;16.40;99.90;;;;;;5084694;28;20068;-62
2022/07/30 03:57:21;;;;;;;3.78;3.38;;;16.40;99.90;;;;;;5074086;28;20044;-62
2022/07/30 03:59:50;;;;;;;;;;;16.40;99.90;;;;;;5056578;28;20052;-62
2022/07/30 04:02:19;;;;;;;7.35;3.40;;;16.40;99.90;;;;;;5073252;28;19920;-62
2022/07/30 04:05:24;;;;;;;4.22;3.50;;;16.40;99.90;;;;;;4991002;28;20065;-63
2022/07/30 04:07:52;;;;;;;5.85;4.00;;;16.40;99.90;;;;;;5008880;28;20053;-62
2022/07/30 04:10:19;;;;;;;7.10;3.80;;;16.40;99.90;;;;;;5041976;28;20498;-62
2022/07/30 04:13:09;;;;;;;4.22;3.50;;;16.40;99.90;;;;;;5084325;28;20075;-62
2022/07/30 04:15:40;;;;;;;;;;;16.30;99.90;;;;;;5076503;28;20048;-62
2022/07/30 04:18:33;;;;;;;4.90;3.13;;;16.30;99.90;;;;;;5090357;28;19939;-62
2022/07/30 04:21:04;;;;;;;6.03;3.30;;;16.40;99.90;;;;;;5058801;28;20041;-63
2022/07/30 04:23:32;;;;;;;7.53;3.03;;;16.30;99.90;;;;;;5076004;28;20089;-63
2022/07/30 04:26:20;;;;;;;4.23;2.70;;;16.30;99.90;;;;;;5093978;28;20037;-63
2022/07/30 04:28:47;;;;;;;3.75;3.00;;;16.30;99.90;;;;;;5069175;28;20051;-63
2022/07/30 04:31:14;;;;;;;3.97;3.22;;;16.30;99.90;;;;;;5075518;28;20038;-63
2022/07/30 04:33:44;;;;;;;3.50;2.78;;;16.40;99.90;;;;;;5075660;28;20071;-63
2022/07/30 04:36:18;;;;;;;3.47;3.03;;;16.30;99.90;;;;;;5093784;28;20043;-63
2022/07/30 04:38:45;;;;;;;3.97;2.92;;;16.40;99.90;;;;;;5066042;28;20049;-63
2022/07/30 04:41:12;;;;;;;5.85;3.15;;;16.40;99.90;;;;;;5084601;28;20075;-63
2022/07/30 04:44:15;;;;;;;3.65;2.90;;;16.40;99.90;;;;;;5091777;22;20173;-64
2022/07/30 04:46:56;;;;;;;4.75;3.20;;;16.40;99.90;;;;;;5091505;28;20516;-64
2022/07/30 04:49:24;;;;;;;;;;;16.30;99.90;;;;;;5092509;28;20044;-64
2022/07/30 04:51:52;;;;;;;8.82;3.45;;;16.40;99.90;;;;;;5089622;28;19951;-64
2022/07/30 04:54:20;;;;;;;6.50;3.22;;;16.40;99.90;;;;;;5091978;28;20040;-64
2022/07/30 04:56:48;;;;;;;9.52;3.17;;;16.40;99.90;;;;;;5092118;28;20046;-64
2022/07/30 04:59:23;;;;;;;4.03;3.50;;;16.30;99.90;;;;;;5092185;28;20420;-64
2022/07/30 05:01:52;;;;;;;5.20;2.88;;;16.40;99.90;;;;;;5083180;28;20071;-64
2022/07/30 05:04:23;;;;;;;5.55;3.65;;;16.40;99.90;;;;;;5091643;28;20047;-64
2022/07/30 05:06:52;;;;;;;5.50;3.45;;;16.40;99.90;;;;;;5091883;28;20169;-63
2022/07/30 05:09:20;;;;;;;5.60;3.78;;;16.40;99.90;;;;;;5090852;28;20459;-64
2022/07/30 05:11:51;;;;;;;3.67;3.20;;;16.40;99.90;;;;;;5091268;28;20044;-64
2022/07/30 05:14:19;;;;;;;5.22;3.63;;;16.40;99.90;;;;;;5091663;28;20082;-64
2022/07/30 05:16:46;;;;;;;4.35;3.28;;;16.50;99.90;;;;;;5089258;28;20409;-64
2022/07/30 05:19:13;;;;;;;3.88;3.47;;;16.50;99.90;;;;;;5084483;28;20114;-64
2022/07/30 05:21:40;;;;;;;4.30;3.25;;;16.50;99.90;;;;;;5085629;28;20048;-64
2022/07/30 05:24:07;;;;;;;4.63;3.30;;;16.50;99.90;;;;;;5085336;28;20052;-64
2022/07/30 05:26:39;;;;;;;6.15;3.60;;;16.50;99.90;;;;;;5084025;28;20059;-64
2022/07/30 05:29:09;;;;;;;5.97;3.60;;;16.50;99.90;;;;;;5083483;28;20040;-64
2022/07/30 05:31:49;;;;;;;7.68;3.97;;;16.50;99.90;;;;;;5075094;28;20482;-64
2022/07/30 05:34:17;;;;;;;4.03;3.50;;;16.50;99.90;;;;;;5076654;28;20036;-64
2022/07/30 05:36:45;;;;;;;4.53;3.60;;;16.50;99.90;;;;;;5088068;28;20411;-64
2022/07/30 05:39:16;;;;;;;6.40;3.83;;;16.50;99.90;;;;;;5091296;28;20039;-64
2022/07/30 05:41:42;;;;;;;8.15;3.58;;;16.60;99.90;;;;;;5086645;28;20048;-63
2022/07/30 05:44:15;;;;;;;4.75;3.88;;;16.60;99.90;;;;;;5090967;28;20043;-63
2022/07/30 05:46:48;;;;;;;5.60;3.55;;;16.70;99.90;;;;;;5087919;28;20049;-64
2022/07/30 05:49:14;;;;;;;4.93;3.63;;;16.70;99.90;;;;;;5087207;28;20041;-64
2022/07/30 05:51:42;;;;;;;;;;;16.80;99.90;;;;;;5084861;28;20036;-64
2022/07/30 05:54:10;;;;;;;6.05;3.72;;;16.80;99.90;;;;;;5088314;28;19927;-64
2022/07/30 05:56:56;;;;;;;4.53;3.95;;;16.90;99.90;;;;;;5092604;28;20128;-64
2022/07/30 05:59:30;;;;;;;4.57;3.63;;;16.90;99.90;;;;;;5090381;28;20043;-64
2022/07/30 06:02:11;;;;;;;6.10;3.45;;;17.10;99.90;;;;;;5073857;28;20055;-63
2022/07/30 06:04:52;;;;;;;4.00;3.58;;;17.10;99.90;;;;;;5087192;28;20048;-64
2022/07/30 06:07:19;;;;;;;4.60;3.10;;;17.10;99.90;;;;;;5090661;28;20127;-63
2022/07/30 06:09:46;;;;;;;5.20;3.78;;;17.20;99.90;;;;;;5090470;28;20086;-63
2022/07/30 06:12:13;;;;;;;5.70;3.33;;;17.20;99.90;;;;;;5088170;28;20412;-63
2022/07/30 06:14:40;;;;;;;6.82;3.67;;;17.20;99.90;;;;;;5090240;28;20040;-63
2022/07/30 06:17:12;;;;;;;6.40;3.33;;;17.30;99.90;;;;;;5090221;28;20490;-63
2022/07/30 06:19:59;;;;;;;4.82;3.83;;;17.30;99.90;;;;;;5086975;28;20060;-64
2022/07/30 06:22:29;;;;;;;5.30;3.58;;;17.30;99.90;;;;;;5087314;28;20040;-63
2022/07/30 06:25:01;;;;;;;8.55;3.97;;;17.30;99.90;;;;;;5079264;28;20408;-63
2022/07/30 06:27:29;;;;;;;4.30;3.17;;;17.30;99.90;;;;;;5078548;28;20040;-64
2022/07/30 06:30:00;;;;;;;4.07;3.13;;;17.40;99.90;;;;;;5081294;28;20250;-63
2022/07/30 06:32:27;;;;;;;4.75;3.03;;;17.40;99.90;;;;;;5077322;28;20135;-63
2022/07/30 06:34:54;;;;;;;5.30;3.15;;;17.50;99.90;;;;;;5070028;28;20131;-64
2022/07/30 06:37:30;;;;;;;4.45;2.83;;;17.50;99.90;;;;;;5070113;28;20067;-64
2022/07/30 06:40:20;;;;;;;3.85;3.08;;;17.50;99.90;;;;;;5079159;28;20097;-63
2022/07/30 06:43:04;;;;;;;3.90;3.10;;;17.40;99.90;;;;;;5076479;28;20049;-62
2022/07/30 06:45:45;;;;;;;7.28;3.28;;;17.50;99.90;;;;;;5080134;28;20075;-62
2022/07/30 06:48:16;;;;;;;5.55;3.42;;;17.60;99.90;;;;;;5083405;28;20036;-63
2022/07/30 06:50:43;;;;;;;4.13;3.65;;;17.70;99.90;;;;;;5080088;28;20646;-62
2022/07/30 06:53:10;;;;;;;4.28;3.53;;;17.70;99.90;;;;;;5080420;28;20056;-64
2022/07/30 06:56:09;;;;;;;7.70;3.85;;;17.70;99.90;;;;;;5079915;28;20535;-63
2022/07/30 06:58:49;;;;;;;6.10;4.22;;;17.90;99.90;;;;;;5082020;28;20069;-63
2022/07/30 07:01:48;;;;;;;4.28;3.88;;;18.00;99.90;;;;;;5081009;28;20063;-63
2022/07/30 07:04:15;;;;;;;;;;;18.20;99.90;;;;;;5079200;28;20045;-64
2022/07/30 07:06:43;;;;;;;4.57;2.92;;;18.30;99.90;;;;;;5081314;28;19973;-64
2022/07/30 07:09:14;;;;;;;4.32;3.17;;;18.60;99.90;;;;;;5079612;28;20040;-63
2022/07/30 07:11:51;;;;;;;3.73;3.20;;;18.90;99.90;;;;;;5077886;28;20086;-64
2022/07/30 07:14:18;;;;;;;3.53;2.70;;;19.00;99.90;;;;;;5081683;28;20050;-63
2022/07/30 07:16:47;;;;;;;4.60;3.20;;;19.00;99.90;;;;;;5082766;28;20178;-63
2022/07/30 07:19:34;;;;;;;3.65;2.80;;;19.00;99.90;;;;;;5081140;28;20054;-64
2022/07/30 07:22:21;;;;;;;4.03;3.35;;;18.80;99.90;;;;;;5079557;28;20128;-64
2022/07/30 07:24:48;;;;;;;3.22;2.67;;;19.00;99.90;;;;;;5082432;28;20127;-63
2022/07/30 07:27:22;;;;;;;4.05;2.47;;;19.10;99.90;;;;;;5078769;28;20567;-63
2022/07/30 07:29:53;;;;;;;3.05;2.50;;;19.10;99.90;;;;;;5077501;28;20074;-64
2022/07/30 07:32:35;;;;;;;2.53;2.30;;;19.20;99.90;;;;;;5079357;28;20040;-64
2022/07/30 07:35:10;;;;;;;2.88;2.30;;;19.30;99.90;;;;;;5081477;28;20515;-64
2022/07/30 07:37:39;;;;;;;4.97;2.95;;;19.50;99.90;;;;;;5089821;28;20496;-64
2022/07/30 07:40:07;;;;;;;3.58;2.53;;;19.50;99.90;;;;;;5092233;28;20050;-64
2022/07/30 07:42:39;;;;;;;3.90;2.97;;;19.50;99.90;;;;;;5090775;28;20044;-64
2022/07/30 07:45:06;;;;;;;8.25;2.55;;;19.20;99.90;;;;;;5084579;28;20044;-64
2022/07/30 07:47:48;;;;;;;2.72;2.47;;;19.40;99.90;;;;;;5092165;28;20109;-64
2022/07/30 07:50:39;;;;;;;3.53;2.40;;;19.40;99.90;;;;;;5089973;28;20497;-64
2022/07/30 07:53:09;;;;;;;4.95;2.80;;;19.60;99.90;;;;;;5085330;28;20071;-64
2022/07/30 07:55:36;;;;;;;6.32;2.88;;;19.60;99.90;;;;;;5092248;28;20127;-64
2022/07/30 07:58:03;;;;;;;4.68;2.70;;;19.60;99.90;;;;;;5091210;28;20032;-64
2022/07/30 08:00:30;;;;;;;;;;;19.70;99.90;;;;;;5093056;28;20060;-64
2022/07/30 08:02:57;;;;;;;4.78;2.25;;;19.70;99.90;;;;;;5092896;28;19969;-64
2022/07/30 08:05:24;;;;;;;3.97;2.53;;;19.80;99.90;;;;;;5089222;28;20051;-64
2022/07/30 08:08:37;;;;;;;7.50;3.10;;;19.90;99.90;;;;;;5082506;28;20128;-64
2022/07/30 08:11:29;;;;;;;2.83;2.53;;;19.80;99.90;;;;;;5093843;28;20524;-64
2022/07/30 08:14:14;;;;;;;3.30;2.25;;;19.60;99.90;;;;;;5088943;28;20070;-64
2022/07/30 08:17:14;;;;;;;3.08;2.40;;;19.20;99.90;;;;;;5085855;28;20058;-64
2022/07/30 08:20:00;;;;;;;7.93;3.08;;;18.70;99.90;;;;;;5093970;28;20102;-64
2022/07/30 08:22:28;;;;;;;4.68;3.00;;;18.40;99.90;;;;;;5092500;28;20049;-64
2022/07/30 08:24:55;;;;;;;4.88;3.05;;;18.20;99.90;;;;;;5092047;28;20044;-64
2022/07/30 08:27:22;;;;;;;5.75;3.13;;;18.10;99.90;;;;;;5092165;28;20130;-64
2022/07/30 08:29:50;;;;;;;5.30;3.67;;;18.10;99.90;;;;;;5075507;28;20050;-64
2022/07/30 08:32:16;;;;;;;8.98;3.80;;;18.10;99.90;;;;;;5092360;28;20048;-64
2022/07/30 08:34:44;;;;;;;5.60;3.47;;;18.00;99.90;;;;;;5091827;28;20055;-64
2022/07/30 08:37:13;;;;;;;5.20;3.70;;;17.90;99.90;;;;;;5092338;28;20040;-63
2022/07/30 08:39:41;;;;;;;4.60;3.88;;;17.80;99.90;;;;;;5092633;28;20066;-64
2022/07/30 08:42:08;;;;;;;;;;;17.70;99.90;;;;;;5093793;28;20047;-64
2022/07/30 08:44:35;;;;;;;4.78;3.92;;;17.60;99.90;;;;;;5091676;28;20288;-64
2022/07/30 08:47:05;;;;;;;5.25;3.85;;;17.70;99.90;;;;;;5092074;28;20555;-64
2022/07/30 08:49:53;;;;;;;4.03;3.40;;;17.70;99.90;;;;;;5092805;28;20048;-64
2022/07/30 08:52:24;;;;;;;4.65;3.58;;;17.80;99.90;;;;;;5085446;28;20036;-64
2022/07/30 08:54:59;;;;;;;5.60;3.70;;;17.90;99.90;;;;;;5086981;28;20048;-65
2022/07/30 08:57:29;;;;;;;5.47;3.40;;;18.00;99.90;;;;;;5092074;28;20512;-64
2022/07/30 08:59:57;;;;;;;7.90;3.65;;;18.10;99.90;;;;;;5091655;28;20151;-64
2022/07/30 09:02:30;;;;;;;12.10;5.43;;;18.20;99.90;;;;;;5089823;28;20037;-64
2022/07/30 09:05:04;;;;;;;6.63;3.67;;;18.20;99.90;;;;;;5088852;28;20036;-63
2022/07/30 09:07:33;;;;;;;4.57;3.47;;;18.50;99.90;;;;;;5080398;28;20131;-64
2022/07/30 09:10:02;;;;;;;6.03;3.53;;;18.70;99.90;;;;;;5080512;28;20047;-64
2022/07/30 09:12:37;;;;;;;7.35;4.05;;;18.70;99.90;;;;;;5086143;28;20086;-64
2022/07/30 09:15:07;;;;;;;4.60;3.70;;;18.80;99.90;;;;;;5091429;28;20036;-64
2022/07/30 09:17:52;;;;;;;4.20;3.53;;;18.90;99.90;;;;;;5089448;28;20488;-64
2022/07/30 09:20:23;;;;;;;5.35;3.63;;;18.80;99.90;;;;;;5091300;28;20048;-64
2022/07/30 09:22:56;;;;;;;5.20;3.05;;;18.90;99.90;;;;;;5091284;28;20044;-64
2022/07/30 09:25:48;;;;;;;5.85;3.25;;;19.10;99.90;;;;;;5092860;28;20098;-64
2022/07/30 09:28:34;;;;;;;4.90;3.28;;;19.40;99.90;;;;;;5082302;28;20504;-64
2022/07/30 09:31:14;;;;;;;4.93;3.20;;;19.50;99.90;;;;;;5086226;28;20040;-64
2022/07/30 09:34:32;;;;;;;3.25;2.40;;;19.80;99.90;;;;;;5083144;28;20102;-64
2022/07/30 09:37:01;;;;;;;4.32;2.97;;;20.10;99.90;;;;;;5081365;28;20537;-64
2022/07/30 09:40:14;;;;;;;3.25;2.30;;;20.60;99.90;;;;;;5083346;28;20100;-64
2022/07/30 09:43:10;;;;;;;4.88;2.20;;;20.90;99.90;;;;;;5085396;28;20110;-64
2022/07/30 09:45:56;;;;;;;3.67;2.65;;;20.70;99.90;;;;;;5078593;28;20148;-64
2022/07/30 09:48:27;;;;;;;4.75;2.15;;;20.60;99.90;;;;;;5081951;28;20075;-64
2022/07/30 09:50:54;;;;;;;3.00;2.60;;;20.60;99.90;;;;;;5084307;28;20058;-65
2022/07/30 09:53:23;;;;;;;2.63;2.03;;;20.70;99.90;;;;;;5084388;28;20555;-64
2022/07/30 09:55:51;;;;;;;3.08;2.50;;;20.50;99.90;;;;;;5082572;28;20119;-64
2022/07/30 09:58:18;;;;;;;3.55;2.95;;;20.70;99.90;;;;;;5081969;28;20064;-64
2022/07/30 10:01:00;;;;;;;4.18;2.45;;;21.00;99.90;;;;;;5077265;28;20134;-63
2022/07/30 10:03:47;;;;;;;3.45;2.00;;;21.40;99.90;;;;;;5080432;28;20056;-63
2022/07/30 10:06:35;;;;;;;2.13;1.92;;;21.00;99.90;;;;;;5081880;28;20055;-63
2022/07/30 10:09:29;;;;;;;2.20;2.00;;;20.90;99.90;;;;;;5080746;28;20054;-63
2022/07/30 10:12:01;;;;;;;2.97;1.85;;;20.70;99.90;;;;;;5088117;28;20047;-63
2022/07/30 10:14:35;;;;;;;2.10;1.90;;;20.40;99.90;;;;;;5090667;28;20066;-63
2022/07/30 10:17:11;;;;;;;15.60;5.55;;;20.70;99.90;;;;;;5089946;28;20497;-62
2022/07/30 10:19:40;;;;;;;3.03;1.92;;;20.90;99.90;;;;;;5090205;28;20139;-63
2022/07/30 10:22:26;;;;;;;2.10;1.80;;;21.10;99.90;;;;;;5091789;28;20051;-63
2022/07/30 10:25:00;;;;;;;1.73;1.63;;;21.10;99.90;;;;;;5090845;28;20040;-63
2022/07/30 10:27:47;;;;;;;1.80;1.70;;;21.40;99.90;;;;;;5089153;28;20047;-62
2022/07/30 10:30:26;;;;;;;3.45;1.60;;;21.50;99.90;;;;;;5089906;28;20412;-62
2022/07/30 10:32:57;;;;;;;3.00;1.50;;;21.10;99.90;;;;;;5091397;28;20508;-62
2022/07/30 10:35:25;;;;;;;3.10;1.70;;;21.00;99.90;;;;;;5090519;28;20036;-62
2022/07/30 10:38:08;;;;;;;2.88;1.50;;;20.90;99.90;;;;;;5091382;28;20040;-62
2022/07/30 10:40:49;;;;;;;2.05;1.42;;;21.00;99.90;;;;;;5091333;28;20123;-62
2022/07/30 10:43:30;;;;;;;1.85;1.58;;;21.10;99.90;;;;;;5089000;28;20048;-63
2022/07/30 10:46:23;;;;;;;4.28;1.90;;;21.30;99.90;;;;;;5091277;28;20048;-62
2022/07/30 10:48:54;;;;;;;13.73;3.17;;;21.40;99.90;;;;;;5091609;28;20048;-63
2022/07/30 10:51:45;;;;;;;2.20;1.80;;;21.70;99.90;;;;;;5085646;28;20097;-63
2022/07/30 10:54:40;;;;;;;1.48;1.38;;;21.90;99.90;;;;;;5083922;28;20040;-62
2022/07/30 10:57:10;;;;;;;3.05;1.70;;;21.70;99.90;;;;;;5089369;28;20063;-62
2022/07/30 10:59:48;;;;;;;1.65;1.55;;;22.00;99.90;;;;;;5088437;28;20071;-62
2022/07/30 11:02:16;;;;;;;;;;;22.00;99.90;;;;;;5091589;28;20637;-63
2022/07/30 11:04:44;;;;;;;3.10;1.80;;;21.80;99.90;;;;;;5090025;28;19946;-62
2022/07/30 11:07:23;;;;;;;6.78;3.05;;;21.90;99.90;;;;;;5091408;28;20036;-63
2022/07/30 11:09:52;;;;;;;6.35;2.50;;;22.40;99.90;;;;;;5083798;28;20052;-63
2022/07/30 11:12:41;;;;;;;1.90;1.77;;;22.60;99.90;;;;;;5091334;28;20059;-63
2022/07/30 11:15:14;;;;;;;2.15;1.90;;;22.80;99.90;;;;;;5094568;28;20074;-63
2022/07/30 11:18:07;;;;;;;4.20;1.80;;;22.80;99.90;;;;;;5092333;28;20044;-63
2022/07/30 11:20:40;;;;;;;1.85;1.60;;;22.60;99.90;;;;;;5094766;28;20496;-63
2022/07/30 11:23:22;;;;;;;2.75;1.77;;;22.40;99.90;;;;;;5095038;28;20050;-63
2022/07/30 11:25:50;;;;;;;1.93;1.80;;;22.60;99.90;;;;;;5093650;28;20048;-62
2022/07/30 11:28:35;;;;;;;8.60;2.40;;;22.60;99.90;;;;;;5086041;28;20401;-63
2022/07/30 11:31:02;;;;;;;2.50;1.92;;;22.70;99.90;;;;;;5083809;28;20040;-63
2022/07/30 11:33:36;;;;;;;2.40;2.10;;;22.90;99.90;;;;;;5077567;28;20064;-63
2022/07/30 11:36:10;;;;;;;2.30;2.03;;;23.00;99.90;;;;;;5094701;28;20492;-63
2022/07/30 11:38:55;;;;;;;2.95;1.70;;;23.10;99.90;;;;;;5094995;28;20149;-62
2022/07/30 11:41:29;;;;;;;4.43;2.10;;;23.30;99.90;;;;;;5092721;28;20070;-62
2022/07/30 11:44:28;;;;;;;7.10;2.30;;;23.20;99.90;;;;;;5094449;28;20040;-63
2022/07/30 11:46:55;;;;;;;2.65;1.80;;;23.10;99.90;;;;;;5094887;28;20059;-62
2022/07/30 11:49:22;;;;;;;2.75;2.30;;;22.90;99.90;;;;;;5092673;28;20036;-62
2022/07/30 11:51:49;;;;;;;2.65;2.22;;;22.70;99.90;;;;;;5086226;28;20033;-62
2022/07/30 11:54:17;;;;;;;4.30;3.13;;;22.50;99.90;;;;;;5085615;28;20499;-63
2022/07/30 11:56:49;;;;;;;3.17;2.13;;;22.40;99.90;;;;;;5092668;28;20051;-63
2022/07/30 11:59:16;;;;;;;4.15;1.92;;;22.20;99.90;;;;;;5089221;28;20496;-63
2022/07/30 12:01:47;;;;;;;1.90;1.80;;;22.20;99.90;;;;;;5084688;28;20040;-62
2022/07/30 12:04:14;;;;;;;2.92;1.70;;;22.10;99.90;;;;;;5082227;28;20048;-62
2022/07/30 12:06:45;;;;;;;3.50;3.05;;;21.90;99.90;;;;;;5074349;28;20048;-62
2022/07/30 12:09:19;;;;;;;2.38;2.08;;;22.30;99.90;;;;;;5094118;28;20051;-62
2022/07/30 12:11:47;;;;;;;4.40;3.78;;;23.00;99.90;;;;;;5093778;28;20040;-62
2022/07/30 12:14:15;;;;;;;3.35;2.20;;;23.40;99.90;;;;;;5092807;28;20040;-62
2022/07/30 12:16:48;;;;;;;5.70;3.33;;;23.60;99.90;;;;;;5093517;28;20093;-62
2022/07/30 12:19:15;;;;;;;2.25;2.08;;;23.30;99.90;;;;;;5094143;28;20500;-62
2022/07/30 12:21:42;;;;;;;7.45;4.30;;;23.00;99.90;;;;;;5092975;28;20516;-61
2022/07/30 12:24:10;;;;;;;2.17;1.98;;;22.60;99.90;;;;;;5092351;28;20048;-62
2022/07/30 12:26:37;;;;;;;3.25;1.73;;;22.40;99.90;;;;;;5089471;28;20515;-61
2022/07/30 12:29:12;;;;;;;3.35;1.95;;;22.60;99.90;;;;;;5088125;28;20043;-62
2022/07/30 12:31:39;;;;;;;3.35;2.00;;;23.10;99.90;;;;;;5091812;28;20040;-61
2022/07/30 12:34:20;;;;;;;2.05;1.85;;;23.00;99.90;;;;;;5091187;28;20051;-62
2022/07/30 12:36:46;;;;;;;2.22;1.83;;;23.50;99.90;;;;;;5093110;28;20054;-62
2022/07/30 12:39:23;;;;;;;3.30;1.98;;;23.80;99.90;;;;;;5091091;28;20036;-62
2022/07/30 12:41:51;;;;;;;2.25;2.05;;;24.00;99.90;;;;;;5092999;28;20433;-62
2022/07/30 12:44:37;;;;;;;3.15;1.92;;;24.10;99.90;;;;;;5089690;28;20050;-62
2022/07/30 12:47:06;;;;;;;4.70;2.33;;;23.80;99.90;;;;;;5085677;28;20048;-62
2022/07/30 12:49:33;;;;;;;2.88;1.85;;;23.60;99.90;;;;;;5085408;28;20071;-62
2022/07/30 12:52:23;;;;;;;2.83;1.85;;;23.40;99.90;;;;;;5081627;28;20123;-65
2022/07/30 12:55:05;;;;;;;2.25;1.83;;;23.20;99.90;;;;;;5081155;28;20029;-61
2022/07/30 12:57:50;;;;;;;;;;;22.80;99.90;;;;;;5084871;28;20045;-63
2022/07/30 13:00:17;;;;;;;3.35;2.28;;;22.50;99.90;;;;;;5082988;28;19927;-62
2022/07/30 13:02:44;;;;;;;4.07;2.20;;;23.10;99.90;;;;;;5072953;28;20041;-62
2022/07/30 13:05:11;;;;;;;3.08;1.65;;;23.80;99.90;;;;;;5077633;28;20048;-62
2022/07/30 13:07:59;;;;;;;2.67;1.63;;;24.10;99.90;;;;;;5093138;28;20119;-62
2022/07/30 13:10:26;;;;;;;3.40;2.10;;;24.70;99.90;;;;;;5092679;28;20051;-62
2022/07/30 13:12:57;;;;;;;3.58;2.20;;;24.60;99.90;;;;;;5086836;28;20049;-62
2022/07/30 13:15:25;;;;;;;2.15;1.95;;;24.50;99.90;;;;;;5092809;28;20050;-63
2022/07/30 13:17:51;;;;;;;2.15;1.95;;;24.10;99.90;;;;;;5085258;28;20052;-62
2022/07/30 13:20:19;;;;;;;1.88;1.75;;;23.60;99.90;;;;;;5083494;28;20043;-62
2022/07/30 13:22:46;;;;;;;7.88;2.08;;;23.30;99.90;;;;;;5084569;28;20442;-63
2022/07/30 13:25:13;;;;;;;4.70;2.40;;;23.20;99.90;;;;;;5081350;28;20055;-63